Time;durP1;ratioP1;P1;durP2;ratioP2;P2;SDS_P1;SDS_P2;PMS_P1;PMS_P2;Temp;Humidity;BMP_temperature;BMP_pressure;BME280_temperature;BME280_humidity;BME280_pressure;Samples;Min_cycle;Max_cycle;Signal;HPM_P1;HPM_P2
2021/10/13 00:01:22;;;;;;;16.60;8.40;;;;;;;;;;4946665;28;20126;-59
2021/10/13 00:03:48;;;;;;;22.20;9.88;;;;;;;;;;4946348;28;20036;-59
2021/10/13 00:06:13;;;;;;;24.65;9.13;;;;;;;;;;4940146;28;20063;-59
2021/10/13 00:08:38;;;;;;;23.08;8.98;;;;;;;;;;4936811;29;20051;-59
2021/10/13 00:11:03;;;;;;;22.30;8.57;;;;;;;;;;4934264;28;20028;-59
2021/10/13 00:13:28;;;;;;;17.30;8.38;;;;;;;;;;4939008;28;20666;-59
2021/10/13 00:15:54;;;;;;;27.13;8.43;;;;;;;;;;4942168;28;20078;-59
2021/10/13 00:18:19;;;;;;;21.50;9.07;;;;;;;;;;4941346;28;20019;-59
2021/10/13 00:20:44;;;;;;;20.40;8.20;;;;;;;;;;4930579;28;20090;-59
2021/10/13 00:23:10;;;;;;;19.90;8.60;;;;;;;;;;4934735;28;20082;-59
2021/10/13 00:25:35;;;;;;;29.33;9.32;;;;;;;;;;4938524;28;20094;-59
2021/10/13 00:28:01;;;;;;;21.50;9.02;;;;;;;;;;4944358;28;20027;-59
2021/10/13 00:30:26;;;;;;;24.67;8.55;;;;;;;;;;4945895;28;20058;-59
2021/10/13 00:32:51;;;;;;;15.45;7.75;;;;;;;;;;4937600;29;20042;-59
2021/10/13 00:35:16;;;;;;;16.85;8.13;;;;;;;;;;4942065;28;20366;-59
2021/10/13 00:37:41;;;;;;;21.35;8.30;;;;;;;;;;4945976;29;20031;-59
2021/10/13 00:40:07;;;;;;;18.30;8.48;;;;;;;;;;4945185;28;20044;-58
2021/10/13 00:42:32;;;;;;;22.95;9.57;;;;;;;;;;4946171;28;20619;-59
2021/10/13 00:44:57;;;;;;;19.80;10.02;;;;;;;;;;4937303;29;20043;-61
2021/10/13 00:47:23;;;;;;;32.92;8.82;;;;;;;;;;4942055;28;20055;-60
2021/10/13 00:49:48;;;;;;;17.35;8.55;;;;;;;;;;4939457;28;20022;-60
2021/10/13 00:52:15;;;;;;;18.10;9.57;;;;;;;;;;4945224;28;20102;-60
2021/10/13 00:54:40;;;;;;;23.05;8.73;;;;;;;;;;4939000;28;20033;-60
2021/10/13 00:57:05;;;;;;;20.63;10.18;;;;;;;;;;4941285;28;20035;-58
2021/10/13 00:59:30;;;;;;;21.30;8.40;;;;;;;;;;4945260;28;20058;-60
2021/10/13 01:02:16;;;;;;;25.60;10.00;;;;;;;;;;4952498;28;20047;-58
2021/10/13 01:04:50;;;;;;;23.95;9.43;;;;;;;;;;4939710;29;20571;-60
2021/10/13 01:07:28;;;;;;;23.70;10.20;;;;;;;;;;4945382;28;20039;-60
2021/10/13 01:09:58;;;;;;;22.50;9.90;;;;;;;;;;4945089;28;20070;-58
2021/10/13 01:12:44;;;;;;;16.98;9.57;;;;;;;;;;4945227;28;20132;-58
2021/10/13 01:15:27;;;;;;;24.13;9.63;;;;;;;;;;4941746;28;20039;-58
2021/10/13 01:17:54;;;;;;;23.95;10.43;;;;;;;;;;4940481;29;20027;-59
2021/10/13 01:20:36;;;;;;;24.60;9.30;;;;;;;;;;4944555;28;20031;-58
2021/10/13 01:23:05;;;;;;;29.48;10.48;;;;;;;;;;4944491;28;20035;-59
2021/10/13 01:25:38;;;;;;;16.58;9.10;;;;;;;;;;4945195;28;20062;-58
2021/10/13 01:28:05;;;;;;;25.98;10.20;;;;;;;;;;4940215;28;20486;-58
2021/10/13 01:30:33;;;;;;;26.38;9.18;;;;;;;;;;4941358;28;20043;-58
2021/10/13 01:33:00;;;;;;;20.17;9.05;;;;;;;;;;4945392;28;20074;-58
2021/10/13 01:35:26;;;;;;;26.63;9.13;;;;;;;;;;4949235;28;20086;-58
2021/10/13 01:37:52;;;;;;;24.42;9.27;;;;;;;;;;4946802;28;20291;-58
2021/10/13 01:40:18;;;;;;;17.08;7.53;;;;;;;;;;4944650;28;20119;-58
2021/10/13 01:42:45;;;;;;;14.65;7.47;;;;;;;;;;4944726;29;20106;-58
2021/10/13 01:45:10;;;;;;;16.45;7.35;;;;;;;;;;4948188;28;20031;-58
2021/10/13 01:47:35;;;;;;;19.42;8.07;;;;;;;;;;4949077;28;20031;-58
2021/10/13 01:50:01;;;;;;;19.83;7.72;;;;;;;;;;4943474;28;20023;-59
2021/10/13 01:52:26;;;;;;;20.88;7.18;;;;;;;;;;4931717;29;20558;-59
2021/10/13 01:55:00;;;;;;;17.65;7.50;;;;;;;;;;4941847;28;20074;-58
2021/10/13 01:57:26;;;;;;;15.38;7.35;;;;;;;;;;4941863;28;20086;-58
2021/10/13 01:59:53;;;;;;;18.92;7.63;;;;;;;;;;4947169;29;20485;-58
2021/10/13 02:02:18;;;;;;;22.33;8.40;;;;;;;;;;4947329;28;20070;-58
2021/10/13 02:04:43;;;;;;;14.18;7.53;;;;;;;;;;4945856;28;20039;-59
2021/10/13 02:07:08;;;;;;;27.83;8.23;;;;;;;;;;4937794;28;20039;-60
2021/10/13 02:09:33;;;;;;;17.30;7.68;;;;;;;;;;4947247;29;20470;-59
2021/10/13 02:11:59;;;;;;;18.85;8.07;;;;;;;;;;4945334;28;20055;-58
2021/10/13 02:14:24;;;;;;;20.38;8.23;;;;;;;;;;4944457;28;20036;-58
2021/10/13 02:16:50;;;;;;;21.70;8.20;;;;;;;;;;4948281;28;20039;-59
2021/10/13 02:19:15;;;;;;;17.92;7.70;;;;;;;;;;4954594;28;20043;-59
2021/10/13 02:21:41;;;;;;;18.98;7.45;;;;;;;;;;4938086;28;20067;-59
2021/10/13 02:24:06;;;;;;;17.60;7.63;;;;;;;;;;4936555;28;20529;-58
2021/10/13 02:26:41;;;;;;;21.70;8.23;;;;;;;;;;4944979;28;20435;-58
2021/10/13 02:29:12;;;;;;;14.48;7.95;;;;;;;;;;4948183;28;20969;-59
2021/10/13 02:31:37;;;;;;;17.50;8.55;;;;;;;;;;4934980;29;20035;-58
2021/10/13 02:34:02;;;;;;;23.90;8.85;;;;;;;;;;4947892;28;20082;-62
2021/10/13 02:36:27;;;;;;;19.48;8.70;;;;;;;;;;4946429;28;20098;-59
2021/10/13 02:38:52;;;;;;;22.65;9.07;;;;;;;;;;4941549;28;20030;-59
2021/10/13 02:41:18;;;;;;;20.83;8.40;;;;;;;;;;4943326;28;20120;-59
2021/10/13 02:43:43;;;;;;;14.50;8.38;;;;;;;;;;4947774;28;20031;-59
2021/10/13 02:46:11;;;;;;;17.88;8.40;;;;;;;;;;4947222;28;20043;-58
2021/10/13 02:48:36;;;;;;;18.02;7.82;;;;;;;;;;4945335;29;20086;-58
2021/10/13 02:51:06;;;;;;;25.05;8.82;;;;;;;;;;4946526;28;20051;-58
2021/10/13 02:53:33;;;;;;;27.95;9.90;;;;;;;;;;4938786;29;20122;-58
2021/10/13 02:55:59;;;;;;;17.10;8.77;;;;;;;;;;4941607;28;20047;-59
2021/10/13 02:58:30;;;;;;;23.60;10.93;;;;;;;;;;4942560;28;20026;-59
2021/10/13 03:00:58;;;;;;;22.90;9.38;;;;;;;;;;4935479;28;20477;-59
2021/10/13 03:03:26;;;;;;;26.02;9.45;;;;;;;;;;4945752;28;20274;-59
2021/10/13 03:05:51;;;;;;;21.05;8.98;;;;;;;;;;4935208;28;20047;-59
2021/10/13 03:08:18;;;;;;;19.23;9.20;;;;;;;;;;4946337;28;20496;-59
2021/10/13 03:10:45;;;;;;;13.35;7.78;;;;;;;;;;4946016;28;20065;-59
2021/10/13 03:13:10;;;;;;;29.02;9.95;;;;;;;;;;4939799;29;20487;-59
2021/10/13 03:15:35;;;;;;;24.35;8.93;;;;;;;;;;4943467;28;20050;-59
2021/10/13 03:18:01;;;;;;;23.10;8.85;;;;;;;;;;4952265;28;20019;-59
2021/10/13 03:20:27;;;;;;;20.80;8.93;;;;;;;;;;4949761;28;20042;-59
2021/10/13 03:22:52;;;;;;;23.00;8.55;;;;;;;;;;4947239;28;20027;-59
2021/10/13 03:25:24;;;;;;;22.08;8.30;;;;;;;;;;4937123;28;20092;-59
2021/10/13 03:27:49;;;;;;;25.00;8.38;;;;;;;;;;4940544;29;20030;-59
2021/10/13 03:30:14;;;;;;;18.30;8.50;;;;;;;;;;4940732;28;20041;-60
2021/10/13 03:32:42;;;;;;;19.85;9.18;;;;;;;;;;4939060;28;20050;-60
2021/10/13 03:35:07;;;;;;;18.17;8.65;;;;;;;;;;4934509;28;20097;-60
2021/10/13 03:37:32;;;;;;;23.15;9.63;;;;;;;;;;4947271;28;20144;-60
2021/10/13 03:39:58;;;;;;;16.05;8.50;;;;;;;;;;4940508;28;20062;-58
2021/10/13 03:42:23;;;;;;;18.92;8.63;;;;;;;;;;4940847;28;20477;-58
2021/10/13 03:44:48;;;;;;;20.92;8.65;;;;;;;;;;4941318;28;20035;-58
2021/10/13 03:47:13;;;;;;;21.52;8.57;;;;;;;;;;4941632;28;20046;-58
2021/10/13 03:49:39;;;;;;;18.17;9.30;;;;;;;;;;4942029;28;20379;-58
2021/10/13 03:52:04;;;;;;;25.83;10.05;;;;;;;;;;4939640;28;20036;-59
2021/10/13 03:54:29;;;;;;;17.45;8.45;;;;;;;;;;4939356;28;20576;-60
2021/10/13 03:56:54;;;;;;;21.08;8.43;;;;;;;;;;4946362;28;20043;-58
2021/10/13 03:59:20;;;;;;;25.75;10.13;;;;;;;;;;4946430;28;20034;-58
2021/10/13 04:01:45;;;;;;;17.20;9.45;;;;;;;;;;4942403;28;20605;-60
2021/10/13 04:04:10;;;;;;;20.80;8.80;;;;;;;;;;4936901;29;20028;-59
2021/10/13 04:06:37;;;;;;;23.45;8.75;;;;;;;;;;4935336;28;20046;-58
2021/10/13 04:09:02;;;;;;;24.05;9.60;;;;;;;;;;4938214;28;20114;-58
2021/10/13 04:11:27;;;;;;;20.70;7.78;;;;;;;;;;4935012;28;20198;-58
2021/10/13 04:13:53;;;;;;;16.63;8.90;;;;;;;;;;4942057;28;20077;-60
2021/10/13 04:16:19;;;;;;;17.80;8.70;;;;;;;;;;4939948;28;20387;-58
2021/10/13 04:18:44;;;;;;;16.67;9.55;;;;;;;;;;4934586;29;20090;-58
2021/10/13 04:21:09;;;;;;;21.67;9.50;;;;;;;;;;4939375;28;20094;-58
2021/10/13 04:23:35;;;;;;;32.33;8.82;;;;;;;;;;4935746;29;20066;-58
2021/10/13 04:26:00;;;;;;;27.23;9.55;;;;;;;;;;4944724;28;20059;-58
2021/10/13 04:28:25;;;;;;;21.30;8.73;;;;;;;;;;4946957;28;20123;-58
2021/10/13 04:30:50;;;;;;;21.13;8.77;;;;;;;;;;4940120;28;20035;-59
2021/10/13 04:33:16;;;;;;;16.63;9.07;;;;;;;;;;4932882;28;20480;-60
2021/10/13 04:35:41;;;;;;;16.95;8.52;;;;;;;;;;4937838;28;20035;-60
2021/10/13 04:38:06;;;;;;;17.60;8.85;;;;;;;;;;4939885;28;20042;-58
2021/10/13 04:40:32;;;;;;;18.77;8.82;;;;;;;;;;4944060;28;20035;-58
2021/10/13 04:42:57;;;;;;;19.63;8.80;;;;;;;;;;4941393;28;20491;-60
2021/10/13 04:45:22;;;;;;;16.67;8.70;;;;;;;;;;4944684;28;20028;-60
2021/10/13 04:47:48;;;;;;;20.70;9.60;;;;;;;;;;4941423;28;20706;-59
2021/10/13 04:50:13;;;;;;;23.73;9.90;;;;;;;;;;4934920;28;20028;-60
2021/10/13 04:52:38;;;;;;;23.02;9.63;;;;;;;;;;4937995;29;20035;-58
2021/10/13 04:55:03;;;;;;;15.85;9.48;;;;;;;;;;4944988;28;20046;-59
2021/10/13 04:57:29;;;;;;;18.92;9.52;;;;;;;;;;4939134;28;20027;-58
2021/10/13 04:59:55;;;;;;;19.73;9.05;;;;;;;;;;4938122;29;20035;-59
2021/10/13 05:02:20;;;;;;;20.45;9.43;;;;;;;;;;4943388;28;20035;-58
2021/10/13 05:04:45;;;;;;;15.95;7.47;;;;;;;;;;4935817;28;20027;-58
2021/10/13 05:07:11;;;;;;;18.30;8.70;;;;;;;;;;4939082;28;20511;-59
2021/10/13 05:09:36;;;;;;;23.70;9.43;;;;;;;;;;4942041;28;20102;-60
2021/10/13 05:12:01;;;;;;;20.02;8.40;;;;;;;;;;4946864;28;20133;-60
2021/10/13 05:14:26;;;;;;;19.55;7.68;;;;;;;;;;4938741;29;20447;-60
2021/10/13 05:16:52;;;;;;;21.45;8.13;;;;;;;;;;4942247;28;20088;-60
2021/10/13 05:19:17;;;;;;;17.33;9.13;;;;;;;;;;4941459;29;20035;-59
2021/10/13 05:21:42;;;;;;;22.58;8.52;;;;;;;;;;4949519;28;20175;-59
2021/10/13 05:24:09;;;;;;;15.32;8.07;;;;;;;;;;4940984;28;20067;-59
2021/10/13 05:26:34;;;;;;;16.42;8.60;;;;;;;;;;4944680;28;20031;-59
2021/10/13 05:29:00;;;;;;;19.52;9.38;;;;;;;;;;4940499;29;20047;-60
2021/10/13 05:31:25;;;;;;;20.75;8.30;;;;;;;;;;4941048;28;20042;-60
2021/10/13 05:33:50;;;;;;;15.30;9.18;;;;;;;;;;4935752;29;20040;-60
2021/10/13 05:36:15;;;;;;;17.55;8.93;;;;;;;;;;4948095;28;20043;-60
2021/10/13 05:38:41;;;;;;;21.75;9.80;;;;;;;;;;4938385;28;20529;-60
2021/10/13 05:41:06;;;;;;;19.13;9.68;;;;;;;;;;4941927;28;20142;-60
2021/10/13 05:43:31;;;;;;;24.58;9.57;;;;;;;;;;4943325;29;20027;-59
2021/10/13 05:45:57;;;;;;;18.23;9.10;;;;;;;;;;4948781;28;20043;-61
2021/10/13 05:48:22;;;;;;;17.00;9.55;;;;;;;;;;4941180;29;20027;-60
2021/10/13 05:50:48;;;;;;;20.02;10.35;;;;;;;;;;4953181;28;20082;-59
2021/10/13 05:53:13;;;;;;;25.15;10.13;;;;;;;;;;4938400;29;20606;-59
2021/10/13 05:55:39;;;;;;;25.67;10.32;;;;;;;;;;4937947;28;20058;-59
2021/10/13 05:58:05;;;;;;;28.75;10.63;;;;;;;;;;4947987;29;20031;-59
2021/10/13 06:00:31;;;;;;;29.27;11.43;;;;;;;;;;4948292;28;20035;-60
2021/10/13 06:02:58;;;;;;;25.10;10.80;;;;;;;;;;4948966;28;20034;-59
2021/10/13 06:05:23;;;;;;;28.52;11.05;;;;;;;;;;4943210;28;20117;-59
2021/10/13 06:07:49;;;;;;;23.20;10.35;;;;;;;;;;4946919;29;20428;-60
2021/10/13 06:10:14;;;;;;;27.10;10.77;;;;;;;;;;4944553;28;20321;-60
2021/10/13 06:12:39;;;;;;;25.77;11.48;;;;;;;;;;4940481;28;20067;-60
2021/10/13 06:15:05;;;;;;;21.83;9.85;;;;;;;;;;4940593;28;20494;-59
2021/10/13 06:17:31;;;;;;;19.95;10.18;;;;;;;;;;4938452;28;20031;-61
2021/10/13 06:19:57;;;;;;;26.13;10.95;;;;;;;;;;4946855;29;20068;-59
2021/10/13 06:22:22;;;;;;;25.05;10.27;;;;;;;;;;4944816;28;20589;-59
2021/10/13 06:24:47;;;;;;;19.58;10.60;;;;;;;;;;4948876;28;20090;-60
2021/10/13 06:27:12;;;;;;;25.48;10.65;;;;;;;;;;4943468;28;20106;-61
2021/10/13 06:29:37;;;;;;;24.10;11.52;;;;;;;;;;4943070;28;20012;-63
2021/10/13 06:32:03;;;;;;;20.23;10.02;;;;;;;;;;4943585;28;20117;-62
2021/10/13 06:34:28;;;;;;;17.88;10.02;;;;;;;;;;4939454;28;20031;-59
2021/10/13 06:36:53;;;;;;;23.38;11.02;;;;;;;;;;4938144;28;20574;-60
2021/10/13 06:39:19;;;;;;;21.48;10.73;;;;;;;;;;4942969;28;20292;-59
2021/10/13 06:41:44;;;;;;;24.38;10.32;;;;;;;;;;4936834;28;20595;-59
2021/10/13 06:44:12;;;;;;;25.15;10.57;;;;;;;;;;4940510;29;20027;-60
2021/10/13 06:46:37;;;;;;;28.88;10.63;;;;;;;;;;4942722;28;20953;-60
2021/10/13 06:49:03;;;;;;;19.42;10.10;;;;;;;;;;4934344;28;20024;-59
2021/10/13 06:51:28;;;;;;;16.63;8.93;;;;;;;;;;4938028;28;20135;-61
2021/10/13 06:53:54;;;;;;;15.27;8.55;;;;;;;;;;4941977;28;20035;-60
2021/10/13 06:56:19;;;;;;;28.48;10.45;;;;;;;;;;4944181;28;20035;-59
2021/10/13 06:58:44;;;;;;;19.92;9.48;;;;;;;;;;4933737;29;20078;-60
2021/10/13 07:01:09;;;;;;;20.55;9.57;;;;;;;;;;4941048;28;20039;-60
2021/10/13 07:03:35;;;;;;;21.73;10.48;;;;;;;;;;4946718;28;20062;-60
2021/10/13 07:06:00;;;;;;;23.30;10.60;;;;;;;;;;4938341;28;20442;-59
2021/10/13 07:08:25;;;;;;;21.30;11.15;;;;;;;;;;4943663;28;20374;-61
2021/10/13 07:10:51;;;;;;;17.88;9.63;;;;;;;;;;4948129;28;20039;-59
2021/10/13 07:13:19;;;;;;;27.35;10.95;;;;;;;;;;4942566;28;20397;-59
2021/10/13 07:15:44;;;;;;;25.75;10.48;;;;;;;;;;4947735;28;20039;-60
2021/10/13 07:18:10;;;;;;;22.92;11.25;;;;;;;;;;4943761;28;20119;-59
2021/10/13 07:20:35;;;;;;;22.98;10.30;;;;;;;;;;4948285;28;20061;-62
2021/10/13 07:23:00;;;;;;;24.52;10.93;;;;;;;;;;4946859;28;20470;-60
2021/10/13 07:25:27;;;;;;;22.17;12.20;;;;;;;;;;4940949;28;20098;-60
2021/10/13 07:27:54;;;;;;;21.35;10.65;;;;;;;;;;4941504;28;20027;-59
2021/10/13 07:30:23;;;;;;;30.85;11.35;;;;;;;;;;4942780;28;20036;-59
2021/10/13 07:32:49;;;;;;;22.98;11.18;;;;;;;;;;4931527;29;20024;-59
2021/10/13 07:35:14;;;;;;;27.52;11.93;;;;;;;;;;4946247;28;20030;-60
2021/10/13 07:37:39;;;;;;;23.08;11.43;;;;;;;;;;4948535;28;20019;-59
2021/10/13 07:40:05;;;;;;;25.40;12.13;;;;;;;;;;4944092;28;20035;-61
2021/10/13 07:42:31;;;;;;;23.77;11.02;;;;;;;;;;4946904;28;20023;-59
2021/10/13 07:44:56;;;;;;;29.38;12.07;;;;;;;;;;4944651;28;20031;-59
2021/10/13 07:47:21;;;;;;;24.70;11.60;;;;;;;;;;4938390;28;20031;-58
2021/10/13 07:49:46;;;;;;;32.08;12.63;;;;;;;;;;4947020;28;20363;-62
2021/10/13 07:52:11;;;;;;;24.35;11.75;;;;;;;;;;4946112;28;20039;-59
2021/10/13 07:54:37;;;;;;;20.08;10.02;;;;;;;;;;4947338;28;20031;-58
2021/10/13 07:57:02;;;;;;;32.50;11.30;;;;;;;;;;4947178;28;20039;-59
2021/10/13 07:59:27;;;;;;;20.20;9.93;;;;;;;;;;4941765;28;20039;-59
2021/10/13 08:01:52;;;;;;;24.52;10.52;;;;;;;;;;4942337;28;20039;-59
2021/10/13 08:04:18;;;;;;;15.98;9.52;;;;;;;;;;4938252;29;20082;-59
2021/10/13 08:06:44;;;;;;;19.10;10.30;;;;;;;;;;4938603;28;20032;-59
2021/10/13 08:09:11;;;;;;;17.73;9.10;;;;;;;;;;4944174;28;20023;-59
2021/10/13 08:11:36;;;;;;;18.58;8.98;;;;;;;;;;4946769;28;20047;-59
2021/10/13 08:14:02;;;;;;;16.05;9.38;;;;;;;;;;4939746;28;20054;-59
2021/10/13 08:16:27;;;;;;;14.85;8.50;;;;;;;;;;4941794;28;20039;-59
2021/10/13 08:18:52;;;;;;;20.92;8.88;;;;;;;;;;4939800;28;20027;-59
2021/10/13 08:21:17;;;;;;;19.50;9.10;;;;;;;;;;4938831;28;20040;-59
2021/10/13 08:23:42;;;;;;;19.85;9.02;;;;;;;;;;4942997;28;20027;-59
2021/10/13 08:26:08;;;;;;;18.70;9.07;;;;;;;;;;4947540;28;20121;-59
2021/10/13 08:28:33;;;;;;;21.38;9.38;;;;;;;;;;4945894;28;20050;-60
2021/10/13 08:30:58;;;;;;;13.23;8.25;;;;;;;;;;4934866;28;20089;-59
2021/10/13 08:33:23;;;;;;;16.95;9.15;;;;;;;;;;4938962;28;20540;-59
2021/10/13 08:35:49;;;;;;;19.23;9.15;;;;;;;;;;4945707;28;20490;-59
2021/10/13 08:38:14;;;;;;;16.92;10.20;;;;;;;;;;4947174;28;20030;-59
2021/10/13 08:40:40;;;;;;;20.73;10.43;;;;;;;;;;4946304;28;20038;-59
2021/10/13 08:43:05;;;;;;;21.67;9.50;;;;;;;;;;4950591;28;20053;-60
2021/10/13 08:45:31;;;;;;;21.98;11.52;;;;;;;;;;4944728;28;20042;-60
2021/10/13 08:47:56;;;;;;;21.15;11.32;;;;;;;;;;4950563;28;20035;-60
2021/10/13 08:50:21;;;;;;;23.42;10.60;;;;;;;;;;4943033;28;20039;-60
2021/10/13 08:52:47;;;;;;;19.23;10.05;;;;;;;;;;4951153;28;20027;-58
2021/10/13 08:55:12;;;;;;;25.00;10.63;;;;;;;;;;4940767;28;20027;-58
2021/10/13 08:57:38;;;;;;;18.83;8.52;;;;;;;;;;4946578;28;20023;-61
2021/10/13 09:00:03;;;;;;;15.00;9.05;;;;;;;;;;4932741;28;20719;-60
2021/10/13 09:02:39;;;;;;;19.77;10.23;;;;;;;;;;4959803;28;20015;-60
2021/10/13 09:05:04;;;;;;;18.45;9.40;;;;;;;;;;4943332;28;20031;-59
2021/10/13 09:07:29;;;;;;;23.48;9.38;;;;;;;;;;4946873;28;20115;-60
2021/10/13 09:09:54;;;;;;;23.33;10.85;;;;;;;;;;4949839;28;20031;-60
2021/10/13 09:12:27;;;;;;;22.08;10.65;;;;;;;;;;4946462;28;20050;-60
2021/10/13 09:14:52;;;;;;;21.35;10.18;;;;;;;;;;4962998;28;20042;-59
2021/10/13 09:17:18;;;;;;;29.70;10.98;;;;;;;;;;4948393;28;20039;-60
2021/10/13 09:19:44;;;;;;;22.85;10.85;;;;;;;;;;4945583;28;20385;-60
2021/10/13 09:22:13;;;;;;;22.90;9.55;;;;;;;;;;4948792;28;20039;-60
2021/10/13 09:24:45;;;;;;;22.33;10.73;;;;;;;;;;4949530;29;20472;-60
2021/10/13 09:27:17;;;;;;;13.90;9.25;;;;;;;;;;4940968;28;20122;-60
2021/10/13 09:29:43;;;;;;;27.00;9.88;;;;;;;;;;4938456;29;20630;-60
2021/10/13 09:32:08;;;;;;;20.65;9.60;;;;;;;;;;4942440;28;20071;-60
2021/10/13 09:34:33;;;;;;;24.30;10.95;;;;;;;;;;4941199;28;20487;-60
2021/10/13 09:36:59;;;;;;;19.02;9.65;;;;;;;;;;4949347;28;20055;-60
2021/10/13 09:39:24;;;;;;;22.42;9.25;;;;;;;;;;4944785;29;20396;-60
2021/10/13 09:41:58;;;;;;;19.45;9.57;;;;;;;;;;4949370;28;20044;-60
2021/10/13 09:44:24;;;;;;;18.15;9.50;;;;;;;;;;4943415;28;20035;-61
2021/10/13 09:46:49;;;;;;;19.92;9.40;;;;;;;;;;4940602;28;20052;-59
2021/10/13 09:49:24;;;;;;;16.67;8.45;;;;;;;;;;4948395;28;20035;-60
2021/10/13 09:51:49;;;;;;;18.88;8.55;;;;;;;;;;4941505;28;20035;-59
2021/10/13 09:54:14;;;;;;;18.77;8.45;;;;;;;;;;4945567;29;20111;-59
2021/10/13 09:56:40;;;;;;;22.17;9.30;;;;;;;;;;4933944;28;20032;-59
2021/10/13 09:59:11;;;;;;;18.90;8.18;;;;;;;;;;4945409;28;20117;-59
2021/10/13 10:01:36;;;;;;;18.13;8.52;;;;;;;;;;4949369;28;20039;-59
2021/10/13 10:04:01;;;;;;;21.05;8.57;;;;;;;;;;4946817;28;20031;-59
2021/10/13 10:06:27;;;;;;;22.17;8.52;;;;;;;;;;4936262;28;20487;-59
2021/10/13 10:08:56;;;;;;;18.27;7.35;;;;;;;;;;4947230;28;20210;-59
2021/10/13 10:11:28;;;;;;;16.50;6.15;;;;;;;;;;4948920;28;20147;-59
2021/10/13 10:13:54;;;;;;;13.35;6.43;;;;;;;;;;4939407;29;20034;-61
2021/10/13 10:16:27;;;;;;;13.60;5.88;;;;;;;;;;4940531;28;20020;-59
2021/10/13 10:18:52;;;;;;;14.20;5.80;;;;;;;;;;4948467;28;20031;-60
2021/10/13 10:21:24;;;;;;;11.95;5.75;;;;;;;;;;4935591;29;20108;-59
2021/10/13 10:23:53;;;;;;;14.95;5.68;;;;;;;;;;4940260;28;20066;-59
2021/10/13 10:26:27;;;;;;;13.70;5.85;;;;;;;;;;4947640;28;20035;-59
2021/10/13 10:28:52;;;;;;;16.90;5.90;;;;;;;;;;4943521;28;20067;-60
2021/10/13 10:31:23;;;;;;;14.05;6.15;;;;;;;;;;4943650;28;20024;-59
2021/10/13 10:33:49;;;;;;;15.20;6.05;;;;;;;;;;4946392;28;20035;-58
2021/10/13 10:36:14;;;;;;;16.38;6.28;;;;;;;;;;4943826;28;20648;-60
2021/10/13 10:38:46;;;;;;;14.63;5.40;;;;;;;;;;4941798;28;20461;-58
2021/10/13 10:41:11;;;;;;;13.88;5.38;;;;;;;;;;4943238;28;20039;-58
2021/10/13 10:43:37;;;;;;;13.20;5.28;;;;;;;;;;4948337;28;20020;-58
2021/10/13 10:46:02;;;;;;;13.20;6.05;;;;;;;;;;4948302;28;20817;-59
2021/10/13 10:48:46;;;;;;;11.57;5.40;;;;;;;;;;4947971;28;20693;-59
2021/10/13 10:51:12;;;;;;;16.00;5.97;;;;;;;;;;4944725;28;20031;-58
2021/10/13 10:53:44;;;;;;;17.65;5.90;;;;;;;;;;4941876;28;20132;-58
2021/10/13 10:56:10;;;;;;;14.68;5.82;;;;;;;;;;4938704;28;20450;-60
2021/10/13 10:58:35;;;;;;;13.95;5.15;;;;;;;;;;4947624;28;20023;-59
2021/10/13 11:01:01;;;;;;;11.20;4.72;;;;;;;;;;4947710;28;20031;-59
2021/10/13 11:03:36;;;;;;;14.35;4.68;;;;;;;;;;4943563;28;20539;-59
2021/10/13 11:06:20;;;;;;;12.25;4.82;;;;;;;;;;4942638;28;20098;-60
2021/10/13 11:08:52;;;;;;;11.95;4.18;;;;;;;;;;4941534;29;20007;-60
2021/10/13 11:11:17;;;;;;;14.98;4.10;;;;;;;;;;4947136;28;20053;-59
2021/10/13 11:13:53;;;;;;;11.00;4.40;;;;;;;;;;4945865;29;20028;-59
2021/10/13 11:16:18;;;;;;;10.73;4.00;;;;;;;;;;4932509;28;20658;-59
2021/10/13 11:18:43;;;;;;;10.93;4.70;;;;;;;;;;4942641;28;20023;-60
2021/10/13 11:21:09;;;;;;;17.38;4.45;;;;;;;;;;4946947;28;20031;-59
2021/10/13 11:23:35;;;;;;;17.08;4.80;;;;;;;;;;4947778;28;20476;-59
2021/10/13 11:26:00;;;;;;;11.00;5.10;;;;;;;;;;4942381;28;20063;-58
2021/10/13 11:28:25;;;;;;;14.68;4.32;;;;;;;;;;4945878;28;20027;-60
2021/10/13 11:30:50;;;;;;;10.15;3.83;;;;;;;;;;4945635;28;20050;-59
2021/10/13 11:33:16;;;;;;;9.82;4.13;;;;;;;;;;4950096;28;20094;-58
2021/10/13 11:35:43;;;;;;;13.43;4.50;;;;;;;;;;4946986;28;20486;-58
2021/10/13 11:38:12;;;;;;;21.60;5.03;;;;;;;;;;4946280;28;20402;-58
2021/10/13 11:40:37;;;;;;;15.82;5.75;;;;;;;;;;4941985;28;20035;-58
2021/10/13 11:43:06;;;;;;;10.52;5.07;;;;;;;;;;4945572;28;20078;-60
2021/10/13 11:45:31;;;;;;;16.02;5.05;;;;;;;;;;4945079;28;20191;-58
2021/10/13 11:48:00;;;;;;;18.88;6.28;;;;;;;;;;4947375;28;20378;-58
2021/10/13 11:50:29;;;;;;;13.60;5.82;;;;;;;;;;4951616;28;20031;-60
2021/10/13 11:52:55;;;;;;;18.85;6.43;;;;;;;;;;4946526;28;20154;-59
2021/10/13 11:55:21;;;;;;;16.95;6.25;;;;;;;;;;4947103;28;20122;-59
2021/10/13 11:57:52;;;;;;;14.25;6.13;;;;;;;;;;4942834;29;20399;-59
2021/10/13 12:00:22;;;;;;;12.82;6.38;;;;;;;;;;4944066;28;20024;-60
2021/10/13 12:02:57;;;;;;;13.30;6.38;;;;;;;;;;4943440;28;20355;-60
2021/10/13 12:05:28;;;;;;;14.30;6.90;;;;;;;;;;4947081;28;20058;-58
2021/10/13 12:07:58;;;;;;;18.85;7.35;;;;;;;;;;4958251;28;20035;-60
2021/10/13 12:10:24;;;;;;;16.95;6.95;;;;;;;;;;4939233;28;20043;-59
2021/10/13 12:13:05;;;;;;;13.77;7.32;;;;;;;;;;4940154;28;20043;-60
2021/10/13 12:15:31;;;;;;;13.50;6.50;;;;;;;;;;4937993;28;20047;-59
2021/10/13 12:18:12;;;;;;;11.15;6.68;;;;;;;;;;4946449;28;20397;-59
2021/10/13 12:20:37;;;;;;;16.15;6.35;;;;;;;;;;4941605;28;20090;-59
2021/10/13 12:23:13;;;;;;;17.85;6.70;;;;;;;;;;4941582;28;20031;-59
2021/10/13 12:25:38;;;;;;;15.20;5.50;;;;;;;;;;4940529;28;20045;-60
2021/10/13 12:28:11;;;;;;;16.55;6.78;;;;;;;;;;4946069;28;20393;-58
2021/10/13 12:30:36;;;;;;;15.55;5.22;;;;;;;;;;4944745;28;20375;-60
2021/10/13 12:33:04;;;;;;;13.52;4.95;;;;;;;;;;4936775;28;20089;-60
2021/10/13 12:35:30;;;;;;;12.63;4.63;;;;;;;;;;4936717;28;20031;-59
2021/10/13 12:37:55;;;;;;;15.95;4.80;;;;;;;;;;4942006;29;20534;-59
2021/10/13 12:40:20;;;;;;;17.23;5.15;;;;;;;;;;4942100;28;20043;-60
2021/10/13 12:42:46;;;;;;;10.57;5.35;;;;;;;;;;4941104;28;20019;-59
2021/10/13 12:45:11;;;;;;;10.98;4.10;;;;;;;;;;4940608;28;20140;-60
2021/10/13 12:47:36;;;;;;;12.45;4.38;;;;;;;;;;4944256;29;20051;-59
2021/10/13 12:50:09;;;;;;;11.98;4.20;;;;;;;;;;4934016;28;20348;-58
2021/10/13 12:52:34;;;;;;;15.85;4.72;;;;;;;;;;4940990;28;20027;-59
2021/10/13 12:54:59;;;;;;;13.82;5.00;;;;;;;;;;4946789;28;20565;-59
2021/10/13 12:57:25;;;;;;;11.70;4.57;;;;;;;;;;4942548;28;20046;-58
2021/10/13 12:59:51;;;;;;;10.35;4.97;;;;;;;;;;4940642;29;20078;-59
2021/10/13 13:02:16;;;;;;;14.48;4.53;;;;;;;;;;4944186;28;20032;-58
2021/10/13 13:04:41;;;;;;;12.80;5.00;;;;;;;;;;4942965;28;20031;-59
2021/10/13 13:07:07;;;;;;;11.38;5.03;;;;;;;;;;4957445;28;20077;-59
2021/10/13 13:09:32;;;;;;;14.85;4.63;;;;;;;;;;4943882;28;20031;-59
2021/10/13 13:11:58;;;;;;;16.77;5.05;;;;;;;;;;4943175;28;20075;-58
2021/10/13 13:14:23;;;;;;;8.48;4.70;;;;;;;;;;4941304;28;20035;-59
2021/10/13 13:16:48;;;;;;;7.97;3.55;;;;;;;;;;4939834;28;20039;-59
2021/10/13 13:19:13;;;;;;;7.82;3.30;;;;;;;;;;4938766;28;20027;-59
2021/10/13 13:21:39;;;;;;;8.45;3.20;;;;;;;;;;4952438;28;20410;-58
2021/10/13 13:24:04;;;;;;;12.63;3.83;;;;;;;;;;4939602;28;20042;-58
2021/10/13 13:26:31;;;;;;;11.88;3.90;;;;;;;;;;4943563;28;20538;-58
2021/10/13 13:28:56;;;;;;;11.40;3.58;;;;;;;;;;4944374;29;20433;-58
2021/10/13 13:31:21;;;;;;;16.40;3.42;;;;;;;;;;4945767;28;20478;-58
2021/10/13 13:33:49;;;;;;;10.23;3.20;;;;;;;;;;4946467;28;20389;-58
2021/10/13 13:36:16;;;;;;;9.52;3.15;;;;;;;;;;4952163;28;20498;-58
2021/10/13 13:38:41;;;;;;;8.80;3.22;;;;;;;;;;4942480;28;20029;-59
2021/10/13 13:41:06;;;;;;;9.32;3.03;;;;;;;;;;4947823;28;20536;-58
2021/10/13 13:43:32;;;;;;;9.77;2.90;;;;;;;;;;4943576;28;20019;-58
2021/10/13 13:45:57;;;;;;;7.75;2.97;;;;;;;;;;4948220;28;20166;-58
2021/10/13 13:48:22;;;;;;;11.77;3.47;;;;;;;;;;4947099;29;20470;-58
2021/10/13 13:50:48;;;;;;;10.85;2.75;;;;;;;;;;4944742;28;20127;-60
2021/10/13 13:53:13;;;;;;;8.93;2.88;;;;;;;;;;4945567;29;20027;-59
2021/10/13 13:55:42;;;;;;;10.20;2.88;;;;;;;;;;4945357;28;20486;-58
2021/10/13 13:58:07;;;;;;;21.00;3.20;;;;;;;;;;4944844;28;20184;-58
2021/10/13 14:00:32;;;;;;;10.60;2.80;;;;;;;;;;4947059;28;20143;-58
2021/10/13 14:02:58;;;;;;;9.63;2.95;;;;;;;;;;4945296;28;20470;-59
2021/10/13 14:05:23;;;;;;;9.48;2.78;;;;;;;;;;4947074;28;20050;-58
2021/10/13 14:07:48;;;;;;;10.63;3.10;;;;;;;;;;4947157;28;20030;-58
2021/10/13 14:10:13;;;;;;;7.55;3.30;;;;;;;;;;4944514;28;20027;-58
2021/10/13 14:12:39;;;;;;;15.40;2.50;;;;;;;;;;4947625;28;20062;-59
2021/10/13 14:15:04;;;;;;;7.25;2.67;;;;;;;;;;4944415;28;20051;-59
2021/10/13 14:17:30;;;;;;;8.85;3.25;;;;;;;;;;4941452;28;20027;-59
2021/10/13 14:19:55;;;;;;;8.02;2.60;;;;;;;;;;4944002;28;20034;-59
2021/10/13 14:22:20;;;;;;;5.45;2.58;;;;;;;;;;4946182;28;20039;-59
2021/10/13 14:24:46;;;;;;;7.50;4.45;;;;;;;;;;4957889;28;20071;-59